Time;durP1;ratioP1;P1;durP2;ratioP2;P2;SDS_P1;SDS_P2;PMS_P1;PMS_P2;Temp;Humidity;BMP_temperature;BMP_pressure;BME280_temperature;BME280_humidity;BME280_pressure;Samples;Min_cycle;Max_cycle;Signal;HPM_P1;HPM_P2
2021/08/04 00:02:25;;;;;;;0.10;0.10;;;;;;;13.38;81.89;101546.94;10458053;28;20037;-64
2021/08/04 00:07:26;;;;;;;0.10;0.10;;;;;;;13.34;81.72;101541.06;10482226;28;20267;-64
2021/08/04 00:12:26;;;;;;;0.10;0.10;;;;;;;13.31;81.44;101544.06;10458553;28;20032;-64
2021/08/04 00:17:27;;;;;;;0.10;0.10;;;;;;;13.28;81.77;101543.53;10464023;28;20041;-63
2021/08/04 00:22:27;;;;;;;0.00;0.00;;;;;;;13.24;82.26;101537.66;10477207;28;20195;-64
2021/08/04 00:27:27;;;;;;;0.00;0.00;;;;;;;13.20;82.92;101536.25;10459709;28;20047;-64
2021/08/04 00:32:28;;;;;;;0.10;0.10;;;;;;;13.14;82.56;101545.75;10462885;28;20063;-64
2021/08/04 00:37:28;;;;;;;0.10;0.10;;;;;;;13.09;82.54;101539.25;10469070;28;20028;-64
2021/08/04 00:42:29;;;;;;;0.10;0.10;;;;;;;12.99;83.23;101546.50;10471011;28;20773;-64
2021/08/04 00:47:29;;;;;;;0.10;0.10;;;;;;;12.90;83.41;101537.59;10474145;28;20464;-63
2021/08/04 00:52:29;;;;;;;0.10;0.10;;;;;;;12.86;83.41;101545.09;10465947;28;20483;-64
2021/08/04 00:57:30;;;;;;;0.10;0.10;;;;;;;12.81;83.71;101538.53;10470317;28;20027;-64
2021/08/04 01:02:51;;;;;;;0.10;0.10;;;;;;;12.74;83.97;101541.00;10461370;28;20411;-64
2021/08/04 01:08:08;;;;;;;0.10;0.10;;;;;;;12.65;83.84;101548.13;10468086;28;20086;-64
2021/08/04 01:13:22;;;;;;;0.00;0.00;;;;;;;12.59;83.80;101558.56;10469504;28;20115;-64
2021/08/04 01:18:26;;;;;;;0.10;0.10;;;;;;;12.52;84.35;101558.38;10470830;28;20552;-63
2021/08/04 01:23:36;;;;;;;0.10;0.10;;;;;;;12.43;84.34;101564.63;10480868;28;20396;-64
2021/08/04 01:28:45;;;;;;;0.10;0.10;;;;;;;12.36;84.82;101558.22;10465277;28;20044;-64
2021/08/04 01:33:49;;;;;;;0.10;0.10;;;;;;;12.27;84.53;101567.13;10456056;28;20033;-64
2021/08/04 01:38:51;;;;;;;0.10;0.10;;;;;;;12.17;85.13;101564.56;10474630;28;20550;-64
2021/08/04 01:43:53;;;;;;;0.10;0.10;;;;;;;12.09;85.15;101561.78;10472088;28;20059;-64
2021/08/04 01:48:54;;;;;;;0.08;0.08;;;;;;;12.02;85.60;101566.91;10480273;28;20047;-64
2021/08/04 01:53:56;;;;;;;0.10;0.10;;;;;;;11.98;86.19;101565.50;10473059;28;20028;-64
2021/08/04 01:58:57;;;;;;;0.10;0.10;;;;;;;11.93;85.74;101568.66;10471502;28;20043;-62
2021/08/04 02:03:57;;;;;;;0.00;0.00;;;;;;;11.89;86.16;101563.75;10471710;28;20074;-63
2021/08/04 02:09:02;;;;;;;0.10;0.10;;;;;;;11.82;85.98;101555.47;10470170;28;20037;-63
2021/08/04 02:14:20;;;;;;;0.10;0.10;;;;;;;11.74;86.27;101542.84;10474826;28;20476;-64
2021/08/04 02:19:40;;;;;;;0.10;0.10;;;;;;;11.67;86.85;101540.94;10481715;28;20039;-63
2021/08/04 02:24:45;;;;;;;0.05;0.05;;;;;;;11.62;86.85;101544.06;10469044;28;20024;-63
2021/08/04 02:29:48;;;;;;;0.10;0.10;;;;;;;11.56;87.06;101541.97;10475905;28;20032;-64
2021/08/04 02:34:49;;;;;;;0.10;0.10;;;;;;;11.50;87.66;101538.06;10471646;28;20067;-64
2021/08/04 02:39:49;;;;;;;0.00;0.00;;;;;;;11.49;87.92;101535.53;10480832;28;20483;-64
2021/08/04 02:44:50;;;;;;;0.10;0.10;;;;;;;11.47;88.53;101543.72;10461348;28;20032;-63
2021/08/04 02:49:51;;;;;;;0.10;0.10;;;;;;;11.48;88.63;101537.38;10472026;28;20111;-64
2021/08/04 02:54:51;;;;;;;0.10;0.10;;;;;;;11.50;88.62;101542.56;10482614;28;20132;-64
2021/08/04 02:59:51;;;;;;;0.10;0.10;;;;;;;11.47;88.61;101541.03;10477460;28;20059;-63
2021/08/04 03:04:52;;;;;;;0.10;0.10;;;;;;;11.45;88.85;101547.50;10466984;28;20029;-64
2021/08/04 03:09:52;;;;;;;0.10;0.10;;;;;;;11.43;89.24;101545.00;10467329;28;20433;-64
2021/08/04 03:14:53;;;;;;;0.10;0.10;;;;;;;11.45;89.14;101545.66;10467251;28;20040;-64
2021/08/04 03:31:46;;;;;;;0.10;0.10;;;;;;;11.58;88.59;101550.69;10444234;28;20056;-68
2021/08/04 03:36:47;;;;;;;0.00;0.00;;;;;;;11.62;88.55;101559.22;10440710;28;20064;-67
2021/08/04 03:41:47;;;;;;;0.10;0.10;;;;;;;11.67;88.86;101564.97;10445572;28;20267;-67
2021/08/04 03:46:48;;;;;;;0.10;0.10;;;;;;;11.72;87.81;101560.88;10446667;28;20049;-68
2021/08/04 03:51:48;;;;;;;0.07;0.07;;;;;;;11.92;87.46;101555.44;10445238;28;20077;-68
2021/08/04 03:56:48;;;;;;;0.10;0.10;;;;;;;12.15;86.52;101553.16;10415029;28;20036;-68
2021/08/04 04:01:49;;;;;;;0.10;0.10;;;;;;;12.42;85.54;101552.25;10414445;28;20271;-68
2021/08/04 04:06:49;;;;;;;0.10;0.10;;;;;;;12.69;84.40;101545.97;10438020;28;20392;-67
2021/08/04 04:11:50;;;;;;;0.00;0.00;;;;;;;12.87;83.40;101553.97;10444483;28;20373;-67
2021/08/04 04:16:51;;;;;;;0.05;0.05;;;;;;;13.20;82.51;101567.53;10443434;28;20063;-67
2021/08/04 04:21:52;;;;;;;0.10;0.10;;;;;;;13.33;81.15;101568.81;10435547;28;20046;-67
2021/08/04 04:26:52;;;;;;;0.10;0.10;;;;;;;13.75;79.35;101572.50;10439422;28;20029;-67
2021/08/04 04:31:53;;;;;;;0.10;0.10;;;;;;;13.41;80.82;101581.41;10442091;28;20124;-67
2021/08/04 04:36:53;;;;;;;0.10;0.10;;;;;;;13.13;81.63;101586.88;10441117;28;20036;-67
2021/08/04 04:41:53;;;;;;;0.10;0.10;;;;;;;12.97;82.36;101591.28;10446245;28;20264;-67
2021/08/04 04:46:54;;;;;;;0.10;0.10;;;;;;;12.83;83.13;101590.03;10451289;28;20375;-67
2021/08/04 04:51:54;;;;;;;0.10;0.10;;;;;;;12.68;83.49;101590.59;10450999;28;20484;-67
2021/08/04 04:56:55;;;;;;;0.10;0.10;;;;;;;12.62;84.39;101595.69;10453793;28;20266;-66
2021/08/04 05:01:55;;;;;;;0.10;0.10;;;;;;;12.55;84.67;101595.47;10441013;28;20612;-67
2021/08/04 05:06:55;;;;;;;0.10;0.10;;;;;;;12.58;85.02;101605.84;10448696;28;20436;-67
2021/08/04 05:11:55;;;;;;;0.10;0.10;;;;;;;12.62;84.43;101603.69;10451011;28;20370;-67
2021/08/04 05:16:56;;;;;;;0.10;0.10;;;;;;;12.68;84.28;101598.59;10450071;28;20037;-67
2021/08/04 05:21:56;;;;;;;0.10;0.10;;;;;;;12.77;85.22;101604.00;10452441;28;20379;-67
2021/08/04 05:26:56;;;;;;;0.10;0.10;;;;;;;12.85;85.40;101601.38;10452699;28;20033;-68
2021/08/04 05:31:57;;;;;;;0.10;0.10;;;;;;;12.96;84.81;101616.34;10449223;28;20091;-66
2021/08/04 05:36:57;;;;;;;0.00;0.00;;;;;;;13.01;84.81;101614.91;10444889;28;20272;-67
2021/08/04 05:41:57;;;;;;;0.00;0.00;;;;;;;13.12;84.51;101614.66;10441448;28;20317;-66
2021/08/04 05:46:58;;;;;;;0.00;0.00;;;;;;;13.27;83.99;101620.28;10451852;28;20037;-64
2021/08/04 05:51:58;;;;;;;0.00;0.00;;;;;;;13.41;84.01;101623.38;10441647;28;20138;-63
2021/08/04 05:56:59;;;;;;;0.10;0.10;;;;;;;13.49;84.59;101616.22;10430402;28;20432;-63
2021/08/04 06:01:59;;;;;;;0.10;0.10;;;;;;;13.55;83.62;101620.94;10433650;28;20040;-63
2021/08/04 06:07:00;;;;;;;0.10;0.10;;;;;;;13.57;83.83;101615.44;10451461;28;20028;-63
2021/08/04 06:12:00;;;;;;;0.10;0.10;;;;;;;13.64;83.97;101619.13;10450896;28;20300;-64
2021/08/04 06:17:00;;;;;;;0.10;0.10;;;;;;;13.75;83.55;101621.53;10449253;28;20060;-64
2021/08/04 06:22:01;;;;;;;0.10;0.10;;;;;;;13.86;82.92;101622.28;10444741;28;20362;-64
2021/08/04 06:27:01;;;;;;;0.10;0.10;;;;;;;13.98;83.21;101621.81;10450298;28;20477;-64
2021/08/04 06:32:02;;;;;;;0.10;0.10;;;;;;;14.08;83.00;101637.75;10450350;28;20416;-64
2021/08/04 06:37:03;;;;;;;0.10;0.10;;;;;;;14.18;82.18;101630.41;10435147;28;20056;-63
2021/08/04 06:42:04;;;;;;;0.00;0.00;;;;;;;14.23;81.74;101628.09;10449893;28;20060;-64
2021/08/04 06:47:04;;;;;;;0.00;0.00;;;;;;;14.34;82.20;101629.63;10444077;28;20444;-64
2021/08/04 06:52:05;;;;;;;0.10;0.10;;;;;;;14.45;82.73;101623.94;10441533;28;20337;-64
2021/08/04 06:57:05;;;;;;;0.10;0.10;;;;;;;14.55;82.00;101625.69;10450154;28;20310;-62
2021/08/04 07:02:06;;;;;;;0.10;0.10;;;;;;;14.57;81.89;101621.78;10451453;28;20506;-62
2021/08/04 07:07:06;;;;;;;0.10;0.10;;;;;;;14.65;82.25;101624.50;10452081;28;20028;-62
2021/08/04 07:12:08;;;;;;;0.10;0.10;;;;;;;14.70;82.50;101621.31;10451132;28;20129;-62
2021/08/04 07:17:08;;;;;;;0.10;0.10;;;;;;;14.79;82.47;101630.22;10443595;28;20310;-62
2021/08/04 07:22:09;;;;;;;0.10;0.10;;;;;;;14.85;82.37;101627.69;10448352;28;20064;-62
2021/08/04 07:27:09;;;;;;;0.00;0.00;;;;;;;15.01;82.77;101628.69;10446884;28;20037;-62
2021/08/04 07:32:10;;;;;;;0.10;0.10;;;;;;;15.16;82.72;101633.22;10448624;28;20508;-62
2021/08/04 07:37:10;;;;;;;0.10;0.10;;;;;;;15.31;82.21;101637.88;10452211;28;20029;-61
2021/08/04 07:42:10;;;;;;;0.10;0.10;;;;;;;15.38;82.14;101644.25;10450761;28;20252;-62
2021/08/04 07:47:11;;;;;;;0.10;0.10;;;;;;;15.45;82.31;101636.34;10444974;28;20024;-62
2021/08/04 07:52:11;;;;;;;0.10;0.10;;;;;;;15.53;82.25;101644.38;10442799;28;20272;-62
2021/08/04 07:57:12;;;;;;;0.10;0.10;;;;;;;15.64;82.10;101638.63;10453310;28;20029;-62
2021/08/04 08:02:12;;;;;;;0.10;0.10;;;;;;;15.83;81.19;101642.81;10443456;28;20021;-62
2021/08/04 08:07:12;;;;;;;0.03;0.03;;;;;;;16.00;81.00;101632.84;10454744;28;20033;-63
2021/08/04 08:12:13;;;;;;;0.00;0.00;;;;;;;16.15;81.68;101639.13;10449833;28;20184;-63
2021/08/04 08:17:13;;;;;;;0.10;0.10;;;;;;;16.32;80.59;101639.91;10447979;28;20040;-63
2021/08/04 08:22:14;;;;;;;0.10;0.10;;;;;;;16.47;80.16;101635.41;10441541;28;20519;-62
2021/08/04 08:27:14;;;;;;;0.10;0.10;;;;;;;16.54;79.41;101632.84;10432988;28;20268;-63
2021/08/04 08:32:15;;;;;;;0.10;0.10;;;;;;;16.62;80.34;101627.41;10451631;28;20029;-63
2021/08/04 08:37:15;;;;;;;0.00;0.00;;;;;;;16.84;79.09;101635.69;10454373;28;20048;-63
2021/08/04 08:42:19;;;;;;;0.10;0.10;;;;;;;17.01;78.96;101629.13;10447382;28;20279;-63
2021/08/04 08:47:20;;;;;;;0.10;0.10;;;;;;;17.28;78.11;101633.09;10454591;28;20043;-63
2021/08/04 08:52:21;;;;;;;0.10;0.10;;;;;;;17.42;76.74;101637.69;10433193;28;20120;-63
2021/08/04 08:57:21;;;;;;;0.00;0.00;;;;;;;17.51;76.49;101635.72;10449135;28;20033;-63
2021/08/04 09:02:21;;;;;;;0.00;0.00;;;;;;;17.55;76.39;101631.63;10448100;28;20029;-63
2021/08/04 09:07:36;;;;;;;0.10;0.10;;;;;;;17.68;76.19;101627.44;10453760;28;20060;-63
2021/08/04 09:12:46;;;;;;;0.10;0.10;;;;;;;17.79;75.32;101640.47;10453150;28;20279;-63
2021/08/04 09:18:13;;;;;;;0.10;0.10;;;;;;;17.90;74.33;101637.31;10452508;28;20124;-63
2021/08/04 09:23:16;;;;;;;0.03;0.03;;;;;;;17.94;74.90;101629.69;10454973;28;20017;-63
2021/08/04 09:28:16;;;;;;;0.10;0.10;;;;;;;17.92;74.95;101632.59;10450031;28;20075;-63
2021/08/04 09:33:25;;;;;;;0.00;0.00;;;;;;;17.84;73.40;101636.19;10468297;22;20041;-64
2021/08/04 09:38:26;;;;;;;0.10;0.10;;;;;;;17.70;73.41;101637.00;10458102;28;20048;-64
2021/08/04 09:43:26;;;;;;;0.00;0.00;;;;;;;17.63;75.64;101645.00;10456632;28;20025;-64
2021/08/04 09:48:28;;;;;;;0.10;0.10;;;;;;;17.60;75.41;101636.47;10456816;28;20044;-64
2021/08/04 09:53:30;;;;;;;0.10;0.10;;;;;;;17.61;75.78;101644.34;10456987;28;20126;-65
2021/08/04 09:58:31;;;;;;;0.10;0.10;;;;;;;17.70;75.55;101636.19;10456950;28;20041;-64
2021/08/04 10:03:33;;;;;;;0.10;0.10;;;;;;;17.90;75.43;101637.31;10454749;28;20434;-64
2021/08/04 10:08:37;;;;;;;0.00;0.00;;;;;;;18.16;74.47;101635.97;10455987;28;20033;-64
2021/08/04 10:13:38;;;;;;;0.10;0.10;;;;;;;18.42;74.43;101636.28;10455904;28;20391;-64
2021/08/04 10:18:39;;;;;;;0.00;0.00;;;;;;;18.77;72.49;101628.34;10454348;28;20128;-64
2021/08/04 10:23:46;;;;;;;0.10;0.10;;;;;;;18.97;70.78;101629.34;10455271;28;20104;-64
2021/08/04 10:28:51;;;;;;;0.00;0.00;;;;;;;19.14;71.03;101631.75;10455131;28;20032;-64
2021/08/04 10:33:52;;;;;;;0.00;0.00;;;;;;;19.33;70.75;101631.06;10455130;28;20037;-64
2021/08/04 10:38:57;;;;;;;0.00;0.00;;;;;;;19.46;70.22;101635.75;10454746;28;20082;-64
2021/08/04 10:43:57;;;;;;;0.00;0.00;;;;;;;19.55;68.93;101626.44;10453705;28;20082;-64
2021/08/04 10:49:03;;;;;;;0.00;0.00;;;;;;;19.81;70.52;101628.47;10456002;28;20155;-64
2021/08/04 10:54:17;;;;;;;0.00;0.00;;;;;;;20.07;67.38;101619.63;10456052;28;20098;-64
2021/08/04 10:59:24;;;;;;;;;;;;;;;20.26;65.97;101615.31;10454700;28;20033;-65
2021/08/04 11:04:30;;;;;;;0.00;0.00;;;;;;;20.24;66.16;101613.84;10452101;28;20519;-63
2021/08/04 11:09:56;;;;;;;0.10;0.10;;;;;;;19.93;65.79;101606.28;10448518;28;20029;-64
2021/08/04 11:15:01;;;;;;;0.00;0.00;;;;;;;19.78;68.49;101618.06;10452807;28;20411;-64
2021/08/04 11:25:08;;;;;;;0.00;0.00;;;;;;;19.73;67.05;101604.31;10453267;28;20029;-64
2021/08/04 11:30:11;;;;;;;0.10;0.10;;;;;;;19.91;64.88;101595.66;10452727;28;20473;-64
2021/08/04 11:35:17;;;;;;;0.10;0.10;;;;;;;20.06;65.49;101592.78;10452403;28;20029;-64
2021/08/04 11:40:17;;;;;;;0.00;0.00;;;;;;;20.29;64.78;101574.31;10452264;28;20040;-64
2021/08/04 11:45:17;;;;;;;0.00;0.00;;;;;;;20.53;63.50;101585.63;10452119;28;20029;-65
2021/08/04 11:50:17;;;;;;;0.00;0.00;;;;;;;20.56;61.45;101585.22;10451959;28;20032;-64
2021/08/04 11:55:24;;;;;;;0.00;0.00;;;;;;;20.79;63.36;101588.34;10450906;28;20122;-64
2021/08/04 12:00:28;;;;;;;0.10;0.10;;;;;;;20.77;60.81;101587.75;10434913;28;20043;-65
2021/08/04 12:05:28;;;;;;;0.10;0.10;;;;;;;20.88;62.50;101588.16;10450248;28;20487;-64
2021/08/04 12:10:28;;;;;;;0.00;0.00;;;;;;;21.07;59.83;101568.34;10451381;28;20029;-65
2021/08/04 12:15:29;;;;;;;0.00;0.00;;;;;;;21.24;58.01;101564.16;10451359;28;20136;-63
2021/08/04 12:20:32;;;;;;;0.00;0.00;;;;;;;21.47;57.59;101562.88;10451369;28;20033;-63
2021/08/04 12:25:35;;;;;;;0.00;0.00;;;;;;;21.36;56.80;101560.78;10450801;28;20036;-64
2021/08/04 12:30:39;;;;;;;0.00;0.00;;;;;;;21.56;57.25;101553.44;10449156;28;20037;-65
2021/08/04 12:41:24;;;;;;;0.10;0.10;;;;;;;22.33;57.80;101542.63;10450412;28;20025;-65
2021/08/04 12:46:30;;;;;;;0.00;0.00;;;;;;;22.57;55.16;101547.25;10451313;28;20262;-63
2021/08/04 12:51:30;;;;;;;0.00;0.00;;;;;;;22.68;56.44;101532.09;10450631;28;20507;-63
2021/08/04 12:56:33;;;;;;;0.10;0.10;;;;;;;22.67;58.15;101532.34;10450410;28;20044;-63
2021/08/04 13:01:38;;;;;;;0.00;0.00;;;;;;;22.68;56.48;101518.53;10432540;28;20263;-63
2021/08/04 13:07:01;;;;;;;0.00;0.00;;;;;;;22.58;55.68;101524.47;10453418;28;20029;-63
2021/08/04 13:12:29;;;;;;;0.00;0.00;;;;;;;22.44;52.39;101528.34;10457979;28;20033;-63
2021/08/04 13:17:34;;;;;;;0.10;0.10;;;;;;;22.54;55.21;101509.69;10458070;28;20048;-65
2021/08/04 13:22:58;;;;;;;0.00;0.00;;;;;;;22.51;55.24;101504.69;10457626;28;20151;-64
2021/08/04 13:28:04;;;;;;;0.10;0.10;;;;;;;22.10;54.26;101508.72;10456407;28;20029;-64
2021/08/04 13:33:06;;;;;;;0.00;0.00;;;;;;;21.53;55.89;101510.50;10457225;28;20032;-65
2021/08/04 13:38:07;;;;;;;0.10;0.10;;;;;;;21.07;55.98;101507.94;10457621;28;20029;-65
2021/08/04 13:43:07;;;;;;;0.10;0.10;;;;;;;20.98;55.75;101510.03;10439115;28;20474;-65
2021/08/04 13:48:08;;;;;;;0.08;0.08;;;;;;;21.57;56.63;101508.19;10456626;28;20430;-65
2021/08/04 13:53:08;;;;;;;0.10;0.10;;;;;;;21.97;55.88;101503.41;10455177;28;20083;-65
2021/08/04 13:58:08;;;;;;;0.10;0.10;;;;;;;21.90;51.62;101503.44;10456470;28;20039;-65
2021/08/04 14:03:09;;;;;;;0.10;0.10;;;;;;;21.66;54.63;101505.00;10456394;28;20524;-65
2021/08/04 14:08:15;;;;;;;0.00;0.00;;;;;;;21.59;56.22;101504.22;10455980;28;20377;-65
2021/08/04 14:13:16;;;;;;;0.00;0.00;;;;;;;21.97;52.70;101494.44;10456288;28;20044;-65
2021/08/04 14:18:16;;;;;;;0.10;0.10;;;;;;;22.01;55.82;101495.66;10452915;28;20074;-65
2021/08/04 14:23:17;;;;;;;0.00;0.00;;;;;;;21.58;57.20;101488.16;10455894;28;20360;-65
2021/08/04 14:28:17;;;;;;;0.10;0.10;;;;;;;21.58;55.74;101475.44;10455301;28;20048;-64
2021/08/04 14:33:17;;;;;;;0.10;0.10;;;;;;;21.67;56.49;101481.44;10454799;28;20492;-64
2021/08/04 14:38:18;;;;;;;0.10;0.10;;;;;;;21.46;56.42;101488.84;10454878;28;20044;-65
2021/08/04 14:43:18;;;;;;;0.00;0.00;;;;;;;21.30;55.08;101493.91;10455127;28;20057;-64
2021/08/04 14:48:18;;;;;;;0.00;0.00;;;;;;;21.47;57.32;101500.53;10436684;28;20373;-65
2021/08/04 14:53:19;;;;;;;0.00;0.00;;;;;;;22.11;55.41;101477.84;10454050;28;20545;-65
2021/08/04 14:58:22;;;;;;;0.00;0.00;;;;;;;21.90;53.35;101510.72;10454061;28;20115;-65
2021/08/04 15:03:22;;;;;;;0.00;0.00;;;;;;;21.15;57.03;101532.09;10453735;28;20720;-65
2021/08/04 15:08:22;;;;;;;0.10;0.10;;;;;;;20.06;59.02;101526.00;10453743;28;20033;-63
2021/08/04 15:13:23;;;;;;;0.00;0.00;;;;;;;19.34;62.29;101530.06;10453326;28;20029;-64
2021/08/04 15:18:23;;;;;;;0.03;0.03;;;;;;;18.98;63.64;101531.13;10453921;28;20033;-64
2021/08/04 15:23:24;;;;;;;0.00;0.00;;;;;;;18.93;65.15;101536.28;10435160;28;20037;-63
2021/08/04 15:28:24;;;;;;;0.00;0.00;;;;;;;18.85;63.33;101531.03;10452753;28;20033;-64
2021/08/04 15:33:25;;;;;;;0.10;0.10;;;;;;;18.90;64.82;101535.84;10459139;22;20432;-65
2021/08/04 15:38:25;;;;;;;0.10;0.10;;;;;;;19.09;64.74;101531.63;10425219;28;20041;-65
2021/08/04 15:43:25;;;;;;;0.00;0.00;;;;;;;19.03;64.78;101535.94;10447632;28;20041;-65
2021/08/04 15:48:26;;;;;;;0.10;0.10;;;;;;;19.17;65.01;101529.59;10407061;28;20110;-65
2021/08/04 15:53:26;;;;;;;0.10;0.10;;;;;;;19.27;63.56;101533.78;10405928;28;20076;-66
2021/08/04 15:58:27;;;;;;;0.10;0.10;;;;;;;19.00;64.50;101522.84;10406514;28;20042;-65
2021/08/04 16:03:27;;;;;;;0.10;0.10;;;;;;;18.93;65.20;101528.16;10436696;28;20029;-65
2021/08/04 16:08:27;;;;;;;0.00;0.00;;;;;;;18.85;65.02;101520.25;10448191;28;20107;-65
2021/08/04 16:13:28;;;;;;;0.10;0.10;;;;;;;18.87;64.85;101517.34;10444342;28;20032;-65
2021/08/04 16:18:28;;;;;;;0.10;0.10;;;;;;;19.02;65.01;101511.81;10418679;28;20033;-64
2021/08/04 16:23:28;;;;;;;0.10;0.10;;;;;;;18.88;66.67;101508.19;10424344;28;20034;-67
2021/08/04 16:28:30;;;;;;;0.10;0.10;;;;;;;18.78;67.15;101509.38;10406317;28;20041;-64
2021/08/04 16:33:33;;;;;;;0.10;0.10;;;;;;;18.64;66.59;101507.59;10406097;28;20034;-64
2021/08/04 16:38:34;;;;;;;0.08;0.08;;;;;;;18.53;68.51;101500.88;10405715;28;20029;-64
2021/08/04 16:43:35;;;;;;;0.00;0.00;;;;;;;18.38;69.27;101497.41;10410695;28;20052;-64
2021/08/04 16:48:39;;;;;;;0.10;0.10;;;;;;;18.41;68.85;101491.63;10426509;28;20437;-64
2021/08/04 16:53:39;;;;;;;0.00;0.00;;;;;;;18.29;69.36;101493.19;10415594;28;20028;-64
2021/08/04 16:58:39;;;;;;;0.10;0.10;;;;;;;18.02;71.49;101495.63;10411588;28;20042;-64
2021/08/04 17:03:40;;;;;;;0.10;0.10;;;;;;;17.69;74.00;101480.97;10412914;28;20045;-64
2021/08/04 17:08:40;;;;;;;0.10;0.10;;;;;;;17.36;73.96;101486.75;10412019;28;20038;-63
2021/08/04 17:13:40;;;;;;;0.10;0.10;;;;;;;17.16;75.50;101490.03;10433171;28;20021;-64
2021/08/04 17:18:40;;;;;;;0.10;0.10;;;;;;;16.97;75.19;101488.72;10452347;28;20041;-64
2021/08/04 17:23:42;;;;;;;0.10;0.10;;;;;;;16.88;75.59;101492.53;10452832;28;20052;-64
2021/08/04 17:28:42;;;;;;;0.10;0.10;;;;;;;16.82;74.71;101490.59;10452548;28;20028;-64
2021/08/04 17:33:43;;;;;;;0.10;0.10;;;;;;;16.82;75.18;101497.81;10410569;28;20037;-64
2021/08/04 17:38:43;;;;;;;0.00;0.00;;;;;;;16.79;74.54;101499.03;10413526;28;20159;-64
2021/08/04 17:43:43;;;;;;;0.10;0.10;;;;;;;16.59;75.75;101485.22;10412374;28;20040;-64
2021/08/04 17:48:44;;;;;;;0.10;0.10;;;;;;;16.49;77.07;101490.00;10413274;28;20025;-64
2021/08/04 17:53:44;;;;;;;0.00;0.00;;;;;;;16.49;79.54;101482.81;10412002;28;20390;-64
2021/08/04 17:58:45;;;;;;;0.05;0.05;;;;;;;16.41;80.10;101488.25;10411679;28;20291;-64
2021/08/04 18:03:45;;;;;;;0.10;0.10;;;;;;;16.32;80.81;101494.72;10409517;28;20030;-64
2021/08/04 18:08:45;;;;;;;0.10;0.10;;;;;;;16.19;80.37;101489.09;10406803;28;20353;-64
2021/08/04 18:13:46;;;;;;;0.10;0.10;;;;;;;16.08;81.46;101493.03;10410746;28;20037;-64
2021/08/04 18:18:46;;;;;;;0.00;0.00;;;;;;;15.97;81.82;101501.50;10409893;28;20276;-64
2021/08/04 18:23:47;;;;;;;0.10;0.10;;;;;;;15.82;82.01;101496.94;10410391;28;20109;-64
2021/08/04 18:28:47;;;;;;;0.10;0.10;;;;;;;15.70;82.03;101501.00;10410550;28;20037;-64
2021/08/04 18:33:47;;;;;;;0.10;0.10;;;;;;;15.62;82.54;101499.19;10409342;28;20040;-64
2021/08/04 18:38:48;;;;;;;0.10;0.10;;;;;;;15.55;83.43;101495.50;10410008;28;20037;-64
2021/08/04 18:43:48;;;;;;;0.10;0.10;;;;;;;15.53;84.25;101494.00;10409007;28;20033;-64
2021/08/04 18:48:48;;;;;;;0.10;0.10;;;;;;;15.50;84.49;101505.94;10409177;28;20500;-64
2021/08/04 18:53:49;;;;;;;0.05;0.05;;;;;;;15.48;84.84;101496.41;10408793;28;20280;-65
2021/08/04 18:58:49;;;;;;;0.00;0.00;;;;;;;15.44;84.92;101505.81;10408087;28;20037;-64
2021/08/04 19:03:49;;;;;;;0.10;0.10;;;;;;;15.40;85.02;101505.31;10399590;28;20044;-64
2021/08/04 19:08:49;;;;;;;0.00;0.00;;;;;;;15.38;84.17;101508.16;10408606;28;20033;-64
2021/08/04 19:13:50;;;;;;;0.00;0.00;;;;;;;15.38;84.60;101508.16;10407954;28;20128;-64
2021/08/04 19:18:50;;;;;;;0.00;0.00;;;;;;;15.34;84.79;101506.84;10406980;28;20100;-64
2021/08/04 19:23:51;;;;;;;0.10;0.10;;;;;;;15.32;85.14;101505.34;10405861;28;20111;-64
2021/08/04 19:28:51;;;;;;;0.10;0.10;;;;;;;15.29;85.19;101509.22;10411151;28;20448;-64
2021/08/04 19:33:51;;;;;;;0.10;0.10;;;;;;;15.27;84.77;101516.63;10410535;28;20029;-64
2021/08/04 19:38:51;;;;;;;0.10;0.10;;;;;;;15.25;84.88;101521.31;10406052;28;20048;-64
2021/08/04 19:43:52;;;;;;;0.00;0.00;;;;;;;15.24;85.16;101524.16;10405788;28;20220;-64
2021/08/04 19:48:52;;;;;;;0.10;0.10;;;;;;;15.22;85.21;101528.88;10405708;28;20041;-64
2021/08/04 19:53:53;;;;;;;0.10;0.10;;;;;;;15.17;85.39;101526.69;10405713;28;20028;-64
2021/08/04 19:58:53;;;;;;;0.00;0.00;;;;;;;15.10;85.97;101515.00;10409323;28;20052;-64
2021/08/04 20:03:53;;;;;;;0.10;0.10;;;;;;;15.05;85.62;101520.03;10405600;28;20034;-64
2021/08/04 20:08:53;;;;;;;0.10;0.10;;;;;;;15.01;87.12;101513.31;10406250;28;20256;-64
2021/08/04 20:13:54;;;;;;;0.10;0.10;;;;;;;14.96;87.17;101513.03;10404864;28;20018;-64
2021/08/04 20:18:54;;;;;;;0.10;0.10;;;;;;;14.93;86.72;101520.41;10405156;28;20120;-64
2021/08/04 20:23:54;;;;;;;0.10;0.10;;;;;;;14.93;86.64;101516.88;10405052;28;20491;-64
2021/08/04 20:28:55;;;;;;;0.10;0.10;;;;;;;14.96;86.95;101519.22;10404627;28;20264;-64
2021/08/04 20:33:55;;;;;;;0.10;0.10;;;;;;;15.00;87.36;101511.66;10413694;28;20025;-64
2021/08/04 20:38:55;;;;;;;0.00;0.00;;;;;;;15.03;86.57;101514.81;10444650;28;20029;-64
2021/08/04 20:43:55;;;;;;;0.10;0.10;;;;;;;15.04;86.68;101510.28;10399027;28;20127;-64
2021/08/04 20:48:56;;;;;;;0.10;0.10;;;;;;;15.01;86.66;101506.13;10404588;28;20117;-64
2021/08/04 20:53:56;;;;;;;0.00;0.00;;;;;;;15.01;87.26;101516.00;10404334;28;20044;-64
2021/08/04 20:58:57;;;;;;;0.10;0.10;;;;;;;14.98;87.10;101509.16;10400510;28;20491;-64
2021/08/04 21:03:57;;;;;;;0.10;0.10;;;;;;;14.97;86.95;101512.00;10401727;28;20022;-64
2021/08/04 21:08:57;;;;;;;0.10;0.10;;;;;;;14.96;87.32;101504.97;10410724;28;20102;-64
2021/08/04 21:13:58;;;;;;;0.10;0.10;;;;;;;14.93;87.85;101503.47;10423520;28;20040;-64
2021/08/04 21:18:59;;;;;;;0.10;0.10;;;;;;;14.89;87.71;101508.34;10446073;28;20276;-64
2021/08/04 21:23:59;;;;;;;0.10;0.10;;;;;;;14.87;88.34;101512.19;10444936;28;20112;-64
2021/08/04 21:28:59;;;;;;;0.08;0.08;;;;;;;14.85;88.42;101503.47;10449021;28;20033;-64
2021/08/04 21:34:00;;;;;;;0.10;0.10;;;;;;;14.84;87.92;101494.59;10409182;28;20025;-65
2021/08/04 21:39:00;;;;;;;0.10;0.10;;;;;;;14.82;88.37;101488.56;10418101;28;20036;-64
2021/08/04 21:44:00;;;;;;;0.00;0.00;;;;;;;14.79;88.86;101493.44;10451679;28;20116;-64
2021/08/04 21:49:01;;;;;;;0.10;0.10;;;;;;;14.74;89.27;101485.06;10451797;28;20112;-64
2021/08/04 21:54:01;;;;;;;0.10;0.10;;;;;;;14.71;89.26;101489.75;10450829;28;20033;-64
2021/08/04 21:59:02;;;;;;;0.10;0.10;;;;;;;14.73;89.19;101489.59;10445913;28;20044;-64
2021/08/04 22:04:04;;;;;;;0.10;0.10;;;;;;;14.74;89.18;101482.38;10408163;28;20017;-64
2021/08/04 22:09:04;;;;;;;0.10;0.10;;;;;;;14.73;89.75;101486.91;10407304;28;20033;-64
2021/08/04 22:14:04;;;;;;;0.10;0.10;;;;;;;14.69;89.90;101485.59;10438255;28;20024;-64
2021/08/04 22:19:04;;;;;;;0.10;0.10;;;;;;;14.61;90.06;101480.22;10447396;28;20033;-64
2021/08/04 22:24:05;;;;;;;0.03;0.03;;;;;;;14.50;90.08;101482.19;10408632;28;20025;-64
2021/08/04 22:29:05;;;;;;;0.10;0.10;;;;;;;14.41;90.61;101480.53;10408259;28;20099;-64
2021/08/04 22:34:06;;;;;;;0.10;0.10;;;;;;;14.37;90.94;101481.91;10408527;28;20026;-64
2021/08/04 22:39:06;;;;;;;0.10;0.10;;;;;;;14.34;91.11;101484.91;10408137;28;20388;-64
2021/08/04 22:44:06;;;;;;;0.10;0.10;;;;;;;14.30;90.89;101482.72;10419428;28;20459;-64
2021/08/04 22:49:06;;;;;;;0.10;0.10;;;;;;;14.24;90.88;101481.53;10408866;28;20450;-64
2021/08/04 22:54:07;;;;;;;0.10;0.10;;;;;;;14.18;91.30;101474.19;10426113;22;20050;-63
2021/08/04 22:59:07;;;;;;;0.10;0.10;;;;;;;14.12;90.98;101470.31;10420109;28;20035;-64
2021/08/04 23:04:10;;;;;;;0.10;0.10;;;;;;;14.11;90.85;101467.78;10450883;28;20033;-64
2021/08/04 23:09:10;;;;;;;0.10;0.10;;;;;;;14.09;90.78;101465.31;10420685;28;20026;-64
2021/08/04 23:14:11;;;;;;;0.10;0.10;;;;;;;14.03;90.69;101457.94;10409837;28;20025;-64
2021/08/04 23:19:11;;;;;;;0.10;0.10;;;;;;;13.98;91.06;101450.38;10410092;28;20040;-64
2021/08/04 23:24:11;;;;;;;0.10;0.10;;;;;;;13.94;90.77;101451.72;10410018;28;20022;-63
2021/08/04 23:29:11;;;;;;;0.10;0.10;;;;;;;13.91;90.87;101448.56;10410340;28;20330;-64